TimeMST,TemperatureF,Dew PointF,Humidity,Sea Level PressureIn,VisibilityMPH,Wind Direction,Wind SpeedMPH,Gust SpeedMPH,PrecipitationIn,Events,Conditions,WindDirDegrees,DateUTC
12:53 AM,55.9,39.9,55,30.12,10.0,SSW,16.1,-,N/A,,Mostly Cloudy,210,2012-11-05 07:53:00
1:53 AM,55.9,41.0,57,30.10,10.0,SW,18.4,-,N/A,,Clear,230,2012-11-05 08:53:00
2:53 AM,57.0,39.9,53,30.08,10.0,SW,21.9,-,N/A,,Clear,230,2012-11-05 09:53:00
3:53 AM,59.0,39.9,49,30.05,10.0,SW,27.6,36.8,N/A,,Clear,230,2012-11-05 10:53:00
4:53 AM,59.0,39.9,49,30.02,10.0,SW,32.2,43.7,N/A,,Clear,220,2012-11-05 11:53:00
5:53 AM,60.1,39.9,47,30.01,10.0,SSW,25.3,39.1,N/A,,Clear,210,2012-11-05 12:53:00
6:53 AM,60.1,39.9,47,29.97,10.0,SSW,32.2,43.7,N/A,,Clear,210,2012-11-05 13:53:00
7:53 AM,60.1,41.0,49,29.99,10.0,SSW,27.6,-,N/A,,Clear,200,2012-11-05 14:53:00
8:53 AM,62.1,41.0,46,29.97,10.0,SW,31.1,41.4,N/A,,Clear,220,2012-11-05 15:53:00
9:53 AM,64.9,37.9,37,29.96,10.0,WSW,25.3,41.4,N/A,,Clear,250,2012-11-05 16:53:00
10:53 AM,66.9,37.0,33,29.96,10.0,WSW,21.9,33.4,N/A,,Clear,240,2012-11-05 17:53:00
11:53 AM,68.0,36.0,31,29.96,10.0,WSW,18.4,24.2,N/A,,Clear,250,2012-11-05 18:53:00
12:53 PM,68.0,37.0,32,29.96,10.0,WSW,17.3,33.4,N/A,,Clear,240,2012-11-05 19:53:00
1:53 PM,68.0,33.1,27,29.98,10.0,West,13.8,28.8,N/A,,Scattered Clouds,280,2012-11-05 20:53:00
2:53 PM,66.0,33.1,29,29.99,10.0,WNW,19.6,-,N/A,,Clear,290,2012-11-05 21:53:00
3:53 PM,63.0,33.1,33,30.03,10.0,WNW,10.4,-,N/A,,Clear,300,2012-11-05 22:53:00
4:53 PM,57.9,33.1,39,30.04,10.0,West,11.5,-,N/A,,Clear,270,2012-11-05 23:53:00
5:53 PM,57.0,32.0,39,30.08,10.0,WNW,10.4,-,N/A,,Clear,290,2012-11-06 00:53:00
6:53 PM,51.1,30.9,46,30.12,10.0,West,11.5,-,N/A,,Clear,260,2012-11-06 01:53:00
7:53 PM,48.0,28.9,48,30.14,10.0,West,8.1,-,N/A,,Clear,260,2012-11-06 02:53:00
8:53 PM,50.0,33.1,52,30.13,10.0,West,11.5,-,N/A,,Clear,260,2012-11-06 03:53:00
9:53 PM,46.9,35.1,63,30.13,10.0,SW,11.5,-,N/A,,Clear,230,2012-11-06 04:53:00
10:53 PM,50.0,35.1,57,30.12,10.0,WSW,12.7,-,N/A,,Clear,240,2012-11-06 05:53:00
11:53 PM,46.9,34.0,61,30.14,10.0,WSW,11.5,-,N/A,,Clear,240,2012-11-06 06:53:00